RKPC/CJU METAR and TAF weather

Enter ICAO airport designator
Station Type Date Time Source
RKPC METAR 2022/05/25 01:00 UTC NOAA

RKPC 250100Z 34004KT 300V360 CAVOK 20/16 Q1011 NOSIG


Station Type Date Time Source
RKPC Decoded METAR 2022/05/25 01:00 UTC NOAA

Cheju International Airport, Korea, South (RKPC) 33-30N 126-30E 28M
May 24, 2022 - 09:00 PM EDT / 2022.05.25 0100 UTC
Wind: from the NNW (340 degrees) at 5 MPH (4 KT) (direction variable):0
Visibility: greater than 7 mile(s):0
Temperature: 68 F (20 C)
Dew Point: 60 F (16 C)
Relative Humidity: 77%
Pressure (altimeter): 29.85 in. Hg (1011 hPa)
ob: RKPC 250100Z 34004KT 300V360 CAVOK 20/16 Q1011 NOSIG
cycle: 1

Station Type Date Time Source
RKPC TAF 2022/05/24 18:06 UTC NOAA

TAF TAF RKPC 241700Z 2418/2524 26007KT CAVOK TN17/2420Z TX24/2505Z TN17/2520Z
BECMG 2422/2423 02006KT
BECMG 2500/2501 28009KT
BECMG 2505/2506 27015G25KT
BECMG 2509/2510 27010KT
BECMG 2519/2520 33007KT 9999 SCT030 BKN100

Example: see airport list